Arcadia, Nebraska
Current Conditions -  °F | °C
As of 5:53 PM on Wednesday 28 Jan 2015 (Local Time) from KODX Reporting Station
Clear Clear  
Wind Chill: 55°   Ceiling: Unl
Heat Index: 55°   Visibility: 10mi
Dew Point: 28°   Wind: 26mph
Humidity: 35%   Direction: 310°NW
Pressure: 29.82"   Gusts: 33mph
Location:  41.42°N, 99.13°W
Report Text: KODX 282353Z AUTO 31023G29KT 10SM CLR 13/M02 A2982 RMK AO2 PK WND 32029/2329 SLP111 T01281022 10189 20128 53038 $
Loading
Personal Weather Stations






























Interactive Weather Map New forecast layout! Learn more

10-Day Weather Forecast

Advertisements
Track Severe Weather on mobile